Terminal Aerodrome Forecast
Issued by NWS Cleveland, OH

Home | Current Version | Previous Version | Graphics & Text | Print | Product List | Glossary On
Versions: 1 2 3 4 5 6 7 8 9 10 11 12 13
000
FTUS41 KCLE 200532
TAFERI
TAF
KERI 200532Z 2006/2106 00000KT P6SM SCT040 BKN100
      TEMPO 2009/2013 5SM BR BKN025
     FM201600 01006KT P6SM BKN050
     FM210200 VRB03KT P6SM SKC=

USA.gov is the U.S. government's official web portal to all federal, state and local government web resources and services.